ADDS METAR Data INFO
IDs: Format: Raw Decoded Include TAF

Data at: 0345 UTC 18 Oct 2017

KCNU 180252Z AUTO 15007KT 10SM CLR 12/08 A3013 RMK AO2 SLP202 60000 T01170078 53007
KCNU 180152Z AUTO 16008KT 10SM CLR 14/08 A3012 RMK AO2 SLP198 T01390078
KCNU 180052Z AUTO 16009KT 10SM CLR 15/08 A3012 RMK AO2 RAE04 SLP197 P0000 T01500083
KCNU 172352Z AUTO 16008KT 10SM -RA CLR 16/09 A3011 RMK AO2 SLP194 P0000 60000 T01610089 10217 20161 56007
KCNU 172252Z AUTO 17009KT 10SM -RA CLR 20/08 A3012 RMK AO2 SLP195 P0000 T02000083
KCNU 172152Z AUTO 17012KT 10SM -RA CLR 21/08 A3012 RMK AO2 SLP197 P0000 T02110083
KCNU 172052Z AUTO 18016KT 10SM -RA CLR 22/08 A3013 RMK AO2 SLP200 P0000 60000 T02170083 56028
KCNU 171952Z AUTO 19016G20KT 10SM -RA CLR 22/08 A3015 RMK AO2 SLP207 P0000 T02170083
KCNU 171852Z AUTO 17017G22KT 10SM -RA CLR 21/08 A3018 RMK AO2 SLP218 P0000 T02060083
KCNU 171752Z AUTO 20015KT 10SM -RA CLR 20/07 A3022 RMK AO2 RAB41 SLP230 P0000 60000 T02000072 10200 20061 58016
KCNU 171652Z AUTO 19013KT 10SM CLR 19/08 A3024 RMK AO2 RAB18E49 SLP238 P0000 T01890078
KCNU 171552Z AUTO 19015G19KT 10SM CLR 17/07 A3026 RMK AO2 SLP244 T01670072
KCNU 171452Z AUTO 19010KT 10SM CLR 14/08 A3027 RMK AO2 SLP248 T01390078 53010
KCNU 171352Z AUTO 18005KT 10SM CLR 11/07 A3026 RMK AO2 SLP247 T01110067
KCNU 171252Z AUTO 18008KT 10SM CLR 08/05 A3024 RMK AO2 SLP238 T00830050
KCNU 171152Z AUTO 18006KT 10SM CLR 08/04 A3024 RMK AO2 SLP238 T00830044 10089 20067 53001
KCNU 171052Z AUTO 18006KT 10SM CLR 09/05 A3023 RMK AO2 SLP235 T00890050
KCNU 170952Z AUTO 17008KT 10SM CLR 08/05 A3024 RMK AO2 SLP235 T00780050
KCNU 170852Z AUTO 17006KT 10SM CLR 07/05 A3024 RMK AO2 SLP236 T00720050 58009
KCNU 170752Z AUTO 18006KT 10SM CLR 08/05 A3025 RMK AO2 SLP241 T00780050
KCNU 170652Z AUTO 18007KT 10SM CLR 08/04 A3026 RMK AO2 SLP244 T00780044
KCNU 170552Z AUTO 18005KT 10SM CLR 08/04 A3027 RMK AO2 SLP247 T00780044 10139 20067 402000033 58006
KCNU 170452Z AUTO 16006KT 10SM CLR 07/04 A3027 RMK AO2 SLP249 T00720044
KCNU 170352Z AUTO 19005KT 10SM CLR 09/05 A3029 RMK AO2 SLP255 T00890050
KCNU 170252Z AUTO 18004KT 10SM CLR 08/06 A3029 RMK AO2 SLP254 T00830056 53002
KCNU 170152Z AUTO 19005KT 10SM CLR 11/06 A3028 RMK AO2 SLP254 T01060056
KCNU 170052Z AUTO 16005KT 10SM CLR 11/06 A3028 RMK AO2 SLP255 T01060061
KCNU 162352Z AUTO 17006KT 10SM CLR 13/07 A3028 RMK AO2 SLP254 T01280067 10200 20128 56012
KCNU 162252Z AUTO 20007KT 10SM CLR 18/04 A3028 RMK AO2 SLP252 T01830044
KCNU 162152Z AUTO 19010KT 10SM CLR 19/04 A3029 RMK AO2 SLP257 T01940039
KCNU 162052Z AUTO 19009KT 10SM CLR 19/03 A3032 RMK AO2 SLP264 T01940033 56032
KCNU 161952Z AUTO 20009KT 10SM CLR 19/03 A3034 RMK AO2 SLP272 T01940033
KCNU 161852Z AUTO 21007KT 180V240 10SM CLR 19/04 A3037 RMK AO2 SLP284 T01940044
KCNU 161752Z AUTO 20006KT 10SM CLR 18/04 A3041 RMK AO2 SLP297 T01780044 10183 20039 58009
KCNU 161652Z AUTO 22006KT 10SM CLR 17/06 A3043 RMK AO2 SLP304 T01720056
KCNU 161552Z AUTO 20006KT 10SM CLR 15/06 A3044 RMK AO2 SLP306 T01500056